sensor_id;sensor_type;location;lat;lon;timestamp;pressure;altitude;pressure_sealevel;temperature;humidity
48244;BME280;34053;51.088;6.572;2022-12-01T00:00:15;101977.16;;;6.60;82.04
48244;BME280;34053;51.088;6.572;2022-12-01T00:02:46;101975.41;;;6.59;82.56
48244;BME280;34053;51.088;6.572;2022-12-01T00:05:16;101977.22;;;6.67;82.25
48244;BME280;34053;51.088;6.572;2022-12-01T00:07:47;101980.72;;;6.69;81.98
48244;BME280;34053;51.088;6.572;2022-12-01T00:10:18;101982.38;;;6.59;82.00
48244;BME280;34053;51.088;6.572;2022-12-01T00:12:57;101978.94;;;6.65;82.27
48244;BME280;34053;51.088;6.572;2022-12-01T00:15:31;101971.09;;;6.63;82.01
48244;BME280;34053;51.088;6.572;2022-12-01T00:18:03;101971.19;;;6.74;81.80
48244;BME280;34053;51.088;6.572;2022-12-01T00:20:37;101974.69;;;6.73;81.52
48244;BME280;34053;51.088;6.572;2022-12-01T00:23:09;101967.03;;;6.93;81.23
48244;BME280;34053;51.088;6.572;2022-12-01T00:25:39;101969.47;;;6.76;81.35
48244;BME280;34053;51.088;6.572;2022-12-01T00:28:10;101978.06;;;6.61;81.68
48244;BME280;34053;51.088;6.572;2022-12-01T00:30:44;101970.25;;;6.66;82.08
48244;BME280;34053;51.088;6.572;2022-12-01T00:33:14;101966.84;;;6.73;81.68
48244;BME280;34053;51.088;6.572;2022-12-01T00:35:44;101972.97;;;6.76;81.89
48244;BME280;34053;51.088;6.572;2022-12-01T00:38:15;101966.78;;;6.65;82.25
48244;BME280;34053;51.088;6.572;2022-12-01T00:40:45;101967.72;;;6.72;81.86
48244;BME280;34053;51.088;6.572;2022-12-01T00:43:16;101968.53;;;6.65;82.59
48244;BME280;34053;51.088;6.572;2022-12-01T00:45:47;101979.00;;;6.71;81.70
48244;BME280;34053;51.088;6.572;2022-12-01T00:48:17;101965.91;;;6.66;82.07
48244;BME280;34053;51.088;6.572;2022-12-01T00:50:50;101964.16;;;6.65;81.96
48244;BME280;34053;51.088;6.572;2022-12-01T00:53:22;101966.88;;;6.76;82.28
48244;BME280;34053;51.088;6.572;2022-12-01T00:55:53;101971.97;;;6.64;82.30
48244;BME280;34053;51.088;6.572;2022-12-01T00:58:24;101977.28;;;6.73;81.62
48244;BME280;34053;51.088;6.572;2022-12-01T01:00:59;101970.22;;;6.63;81.79
48244;BME280;34053;51.088;6.572;2022-12-01T01:03:31;101978.00;;;6.56;82.19
48244;BME280;34053;51.088;6.572;2022-12-01T01:06:08;101980.63;;;6.59;81.75
48244;BME280;34053;51.088;6.572;2022-12-01T01:08:40;101981.59;;;6.71;81.99
48244;BME280;34053;51.088;6.572;2022-12-01T01:11:10;101975.53;;;6.72;81.55
48244;BME280;34053;51.088;6.572;2022-12-01T01:13:41;101982.34;;;6.57;82.22
48244;BME280;34053;51.088;6.572;2022-12-01T01:16:17;101987.50;;;6.51;82.60
48244;BME280;34053;51.088;6.572;2022-12-01T01:18:48;101977.97;;;6.52;82.48
48244;BME280;34053;51.088;6.572;2022-12-01T01:21:20;101988.50;;;6.64;81.64
48244;BME280;34053;51.088;6.572;2022-12-01T01:23:52;101989.41;;;6.68;81.48
48244;BME280;34053;51.088;6.572;2022-12-01T01:26:26;101979.75;;;6.60;81.88
48244;BME280;34053;51.088;6.572;2022-12-01T01:28:59;101978.91;;;6.63;82.13
48244;BME280;34053;51.088;6.572;2022-12-01T01:31:34;101984.13;;;6.61;82.04
48244;BME280;34053;51.088;6.572;2022-12-01T01:34:05;101987.53;;;6.57;82.22
48244;BME280;34053;51.088;6.572;2022-12-01T01:36:36;101985.88;;;6.63;81.99
48244;BME280;34053;51.088;6.572;2022-12-01T01:39:06;101992.84;;;6.67;81.96
48244;BME280;34053;51.088;6.572;2022-12-01T01:41:37;101996.31;;;6.63;82.23
48244;BME280;34053;51.088;6.572;2022-12-01T01:47:31;102002.53;;;6.75;81.48
48244;BME280;34053;51.088;6.572;2022-12-01T01:50:12;102011.97;;;6.66;82.25
48244;BME280;34053;51.088;6.572;2022-12-01T01:52:47;102004.94;;;6.55;82.26
48244;BME280;34053;51.088;6.572;2022-12-01T01:55:20;102010.22;;;6.61;81.96
48244;BME280;34053;51.088;6.572;2022-12-01T01:57:51;102008.50;;;6.65;82.07
48244;BME280;34053;51.088;6.572;2022-12-01T02:00:22;102005.09;;;6.71;81.56
48244;BME280;34053;51.088;6.572;2022-12-01T02:02:52;102004.09;;;6.56;82.35
48244;BME280;34053;51.088;6.572;2022-12-01T02:05:26;102004.94;;;6.58;82.21
48244;BME280;34053;51.088;6.572;2022-12-01T02:07:57;101997.13;;;6.57;82.59
48244;BME280;34053;51.088;6.572;2022-12-01T02:22:28;102008.44;;;6.60;82.54
48244;BME280;34053;51.088;6.572;2022-12-01T02:31:10;102004.88;;;6.52;82.81
48244;BME280;34053;51.088;6.572;2022-12-01T02:33:51;102008.50;;;6.64;82.76
48244;BME280;34053;51.088;6.572;2022-12-01T02:36:29;102011.94;;;6.61;82.48
48244;BME280;34053;51.088;6.572;2022-12-01T02:39:25;102005.78;;;6.54;82.45
48244;BME280;34053;51.088;6.572;2022-12-01T02:42:15;102006.69;;;6.56;82.45
48244;BME280;34053;51.088;6.572;2022-12-01T02:45:12;102001.22;;;6.35;83.89
48244;BME280;34053;51.088;6.572;2022-12-01T02:47:44;101995.34;;;6.53;83.31
48244;BME280;34053;51.088;6.572;2022-12-01T02:50:19;101997.97;;;6.56;82.07
48244;BME280;34053;51.088;6.572;2022-12-01T02:52:51;101999.78;;;6.60;82.14
48244;BME280;34053;51.088;6.572;2022-12-01T02:55:22;101998.81;;;6.55;82.77
48244;BME280;34053;51.088;6.572;2022-12-01T02:57:53;101999.72;;;6.55;82.25
48244;BME280;34053;51.088;6.572;2022-12-01T03:00:24;102004.03;;;6.55;83.00
48244;BME280;34053;51.088;6.572;2022-12-01T03:14:07;102007.59;;;6.60;82.38
48244;BME280;34053;51.088;6.572;2022-12-01T03:19:36;102007.63;;;6.65;82.56
48244;BME280;34053;51.088;6.572;2022-12-01T03:22:25;102007.38;;;6.41;83.43
48244;BME280;34053;51.088;6.572;2022-12-01T03:24:59;102001.38;;;6.49;83.11
48244;BME280;34053;51.088;6.572;2022-12-01T03:27:32;101996.97;;;6.43;83.29
48244;BME280;34053;51.088;6.572;2022-12-01T03:30:05;102008.41;;;6.57;83.10
48244;BME280;34053;51.088;6.572;2022-12-01T03:32:43;101995.31;;;6.51;82.99
48244;BME280;34053;51.088;6.572;2022-12-01T03:35:23;102000.53;;;6.51;83.34
48244;BME280;34053;51.088;6.572;2022-12-01T03:38:00;102006.66;;;6.53;83.30
48244;BME280;34053;51.088;6.572;2022-12-01T03:40:32;102001.47;;;6.56;82.83
48244;BME280;34053;51.088;6.572;2022-12-01T03:43:11;101997.13;;;6.58;83.29
48244;BME280;34053;51.088;6.572;2022-12-01T03:48:16;101996.16;;;6.47;83.78
48244;BME280;34053;51.088;6.572;2022-12-01T03:50:55;101999.53;;;6.37;84.27
48244;BME280;34053;51.088;6.572;2022-12-01T03:54:05;101997.88;;;6.45;84.28
48244;BME280;34053;51.088;6.572;2022-12-01T03:56:45;102006.53;;;6.44;83.75
48244;BME280;34053;51.088;6.572;2022-12-01T03:59:18;102006.50;;;6.38;83.64
48244;BME280;34053;51.088;6.572;2022-12-01T04:01:50;102003.94;;;6.44;83.28
48244;BME280;34053;51.088;6.572;2022-12-01T04:04:21;102008.28;;;6.45;83.52
48244;BME280;34053;51.088;6.572;2022-12-01T04:06:52;102010.00;;;6.40;84.36
48244;BME280;34053;51.088;6.572;2022-12-01T04:09:23;102007.44;;;6.46;83.70
48244;BME280;34053;51.088;6.572;2022-12-01T04:11:53;102013.34;;;6.33;84.37
48244;BME280;34053;51.088;6.572;2022-12-01T04:14:43;102009.16;;;6.45;83.71
48244;BME280;34053;51.088;6.572;2022-12-01T04:17:13;102011.63;;;6.32;84.49
48244;BME280;34053;51.088;6.572;2022-12-01T04:19:44;102011.69;;;6.38;84.55
48244;BME280;34053;51.088;6.572;2022-12-01T04:22:14;102011.69;;;6.36;84.73
48244;BME280;34053;51.088;6.572;2022-12-01T04:24:45;102015.94;;;6.29;85.08
48244;BME280;34053;51.088;6.572;2022-12-01T04:27:16;102008.97;;;6.27;84.53
48244;BME280;34053;51.088;6.572;2022-12-01T04:29:46;102010.75;;;6.33;84.46
48244;BME280;34053;51.088;6.572;2022-12-01T04:32:17;102013.34;;;6.29;85.06
48244;BME280;34053;51.088;6.572;2022-12-01T04:34:47;102012.59;;;6.40;84.40
48244;BME280;34053;51.088;6.572;2022-12-01T04:37:18;102003.03;;;6.39;83.56
48244;BME280;34053;51.088;6.572;2022-12-01T04:39:49;102002.88;;;6.26;84.97
48244;BME280;34053;51.088;6.572;2022-12-01T04:42:19;102009.88;;;6.30;84.78
48244;BME280;34053;51.088;6.572;2022-12-01T04:44:50;102001.00;;;6.13;86.01
48244;BME280;34053;51.088;6.572;2022-12-01T04:47:20;102000.25;;;6.26;85.21
48244;BME280;34053;51.088;6.572;2022-12-01T04:49:51;102001.06;;;6.18;85.08
48244;BME280;34053;51.088;6.572;2022-12-01T04:52:21;102001.22;;;6.35;84.39
48244;BME280;34053;51.088;6.572;2022-12-01T04:54:52;102001.19;;;6.30;84.54
48244;BME280;34053;51.088;6.572;2022-12-01T04:57:22;101999.31;;;6.18;85.09
48244;BME280;34053;51.088;6.572;2022-12-01T04:59:53;102005.41;;;6.20;85.05
48244;BME280;34053;51.088;6.572;2022-12-01T05:02:23;101996.69;;;6.18;85.01
48244;BME280;34053;51.088;6.572;2022-12-01T05:04:54;102002.81;;;6.20;85.14
48244;BME280;34053;51.088;6.572;2022-12-01T05:07:49;102002.69;;;6.11;85.33
48244;BME280;34053;51.088;6.572;2022-12-01T05:19:34;102005.47;;;6.23;85.24
48244;BME280;34053;51.088;6.572;2022-12-01T05:23:26;102001.06;;;6.19;84.37
48244;BME280;34053;51.088;6.572;2022-12-01T05:26:54;102003.66;;;6.18;84.48
48244;BME280;34053;51.088;6.572;2022-12-01T05:31:27;102001.91;;;6.18;84.53
48244;BME280;34053;51.088;6.572;2022-12-01T05:38:25;102005.41;;;6.22;84.44
48244;BME280;34053;51.088;6.572;2022-12-01T05:41:06;102016.75;;;6.22;83.66
48244;BME280;34053;51.088;6.572;2022-12-01T05:43:36;102011.19;;;5.97;83.93
48244;BME280;34053;51.088;6.572;2022-12-01T05:46:07;102019.09;;;6.02;83.57
48244;BME280;34053;51.088;6.572;2022-12-01T05:48:38;102020.00;;;6.06;83.89
48244;BME280;34053;51.088;6.572;2022-12-01T05:51:14;102019.75;;;5.89;84.00
48244;BME280;34053;51.088;6.572;2022-12-01T05:53:48;102018.84;;;5.85;83.82
48244;BME280;34053;51.088;6.572;2022-12-01T05:56:18;102012.94;;;5.98;83.59
48244;BME280;34053;51.088;6.572;2022-12-01T05:58:49;102015.66;;;6.06;83.38
48244;BME280;34053;51.088;6.572;2022-12-01T06:01:23;102020.88;;;6.06;83.11
48244;BME280;34053;51.088;6.572;2022-12-01T06:03:54;102021.84;;;6.16;83.87
48244;BME280;34053;51.088;6.572;2022-12-01T06:06:28;102022.63;;;6.06;83.01
48244;BME280;34053;51.088;6.572;2022-12-01T06:09:01;102026.97;;;6.07;83.73
48244;BME280;34053;51.088;6.572;2022-12-01T06:11:33;102029.59;;;6.08;83.08
48244;BME280;34053;51.088;6.572;2022-12-01T06:14:04;102033.91;;;6.08;83.27
48244;BME280;34053;51.088;6.572;2022-12-01T06:16:35;102028.81;;;6.14;83.46
48244;BME280;34053;51.088;6.572;2022-12-01T06:19:06;102026.94;;;6.05;83.43
48244;BME280;34053;51.088;6.572;2022-12-01T06:21:37;102035.66;;;6.06;83.15
48244;BME280;34053;51.088;6.572;2022-12-01T06:24:11;102029.66;;;6.11;83.77
48244;BME280;34053;51.088;6.572;2022-12-01T06:26:44;102044.38;;;6.09;83.49
48244;BME280;34053;51.088;6.572;2022-12-01T06:29:15;102038.44;;;6.23;83.50
48244;BME280;34053;51.088;6.572;2022-12-01T06:31:46;102041.91;;;6.19;82.89
48244;BME280;34053;51.088;6.572;2022-12-01T06:34:17;102042.75;;;6.19;82.94
48244;BME280;34053;51.088;6.572;2022-12-01T06:36:54;102039.19;;;6.11;83.24
48244;BME280;34053;51.088;6.572;2022-12-01T06:39:25;102043.53;;;6.10;83.56
48244;BME280;34053;51.088;6.572;2022-12-01T06:41:55;102037.66;;;6.28;82.45
48244;BME280;34053;51.088;6.572;2022-12-01T06:44:26;102038.31;;;6.12;83.09
48244;BME280;34053;51.088;6.572;2022-12-01T06:46:59;102037.41;;;6.07;83.86
48244;BME280;34053;51.088;6.572;2022-12-01T06:49:31;102040.88;;;6.09;83.58
48244;BME280;34053;51.088;6.572;2022-12-01T06:52:02;102042.41;;;5.96;83.51
48244;BME280;34053;51.088;6.572;2022-12-01T06:54:33;102053.00;;;6.04;83.64
48244;BME280;34053;51.088;6.572;2022-12-01T06:57:04;102050.41;;;6.05;83.33
48244;BME280;34053;51.088;6.572;2022-12-01T06:59:34;102053.03;;;6.07;83.23
48244;BME280;34053;51.088;6.572;2022-12-01T07:02:05;102053.03;;;6.07;83.78
48244;BME280;34053;51.088;6.572;2022-12-01T07:04:35;102052.34;;;6.22;82.42
48244;BME280;34053;51.088;6.572;2022-12-01T07:07:06;102057.47;;;6.14;83.21
48244;BME280;34053;51.088;6.572;2022-12-01T07:09:37;102057.41;;;6.11;82.94
48244;BME280;34053;51.088;6.572;2022-12-01T07:12:08;102059.22;;;6.15;83.12
48244;BME280;34053;51.088;6.572;2022-12-01T07:14:38;102054.75;;;6.06;83.58
48244;BME280;34053;51.088;6.572;2022-12-01T07:17:11;102057.19;;;5.94;83.61
48244;BME280;34053;51.088;6.572;2022-12-01T07:19:42;102055.72;;;6.14;83.33
48244;BME280;34053;51.088;6.572;2022-12-01T07:22:12;102063.53;;;6.13;83.02
48244;BME280;34053;51.088;6.572;2022-12-01T07:24:43;102053.13;;;6.13;83.39
48244;BME280;34053;51.088;6.572;2022-12-01T07:27:13;102060.09;;;6.17;82.66
48244;BME280;34053;51.088;6.572;2022-12-01T07:29:44;102061.91;;;6.20;82.42
48244;BME280;34053;51.088;6.572;2022-12-01T07:32:14;102066.13;;;6.11;83.27
48244;BME280;34053;51.088;6.572;2022-12-01T07:34:45;102061.78;;;6.12;83.30
48244;BME280;34053;51.088;6.572;2022-12-01T07:37:15;102058.22;;;6.05;83.04
48244;BME280;34053;51.088;6.572;2022-12-01T07:39:46;102059.13;;;6.09;83.36
48244;BME280;34053;51.088;6.572;2022-12-01T07:42:16;102068.63;;;6.05;83.16
48244;BME280;34053;51.088;6.572;2022-12-01T07:44:47;102061.72;;;6.09;82.80
48244;BME280;34053;51.088;6.572;2022-12-01T07:47:17;102073.91;;;6.10;82.92
48244;BME280;34053;51.088;6.572;2022-12-01T07:49:49;102068.69;;;6.10;82.82
48244;BME280;34053;51.088;6.572;2022-12-01T07:52:19;102075.84;;;6.25;82.40
48244;BME280;34053;51.088;6.572;2022-12-01T07:54:50;102074.81;;;6.10;82.82
48244;BME280;34053;51.088;6.572;2022-12-01T07:57:20;102072.19;;;6.12;82.54
48244;BME280;34053;51.088;6.572;2022-12-01T07:59:51;102079.03;;;6.04;83.34
48244;BME280;34053;51.088;6.572;2022-12-01T08:02:22;102078.13;;;6.00;83.52
48244;BME280;34053;51.088;6.572;2022-12-01T08:04:52;102081.69;;;6.07;83.09
48244;BME280;34053;51.088;6.572;2022-12-01T08:07:23;102082.50;;;6.03;83.36
48244;BME280;34053;51.088;6.572;2022-12-01T08:09:53;102083.56;;;6.17;83.28
48244;BME280;34053;51.088;6.572;2022-12-01T08:12:24;102080.81;;;6.06;83.47
48244;BME280;34053;51.088;6.572;2022-12-01T08:14:54;102077.34;;;6.07;83.38
48244;BME280;34053;51.088;6.572;2022-12-01T08:17:25;102082.56;;;6.09;83.36
48244;BME280;34053;51.088;6.572;2022-12-01T08:19:55;102086.94;;;6.08;83.32
48244;BME280;34053;51.088;6.572;2022-12-01T08:22:26;102089.59;;;6.13;83.09
48244;BME280;34053;51.088;6.572;2022-12-01T08:24:56;102087.06;;;6.19;83.03
48244;BME280;34053;51.088;6.572;2022-12-01T08:27:27;102086.13;;;6.14;82.97
48244;BME280;34053;51.088;6.572;2022-12-01T08:29:57;102086.97;;;6.11;82.96
48244;BME280;34053;51.088;6.572;2022-12-01T08:32:28;102086.94;;;6.10;83.02
48244;BME280;34053;51.088;6.572;2022-12-01T08:34:59;102090.53;;;6.18;83.21
48244;BME280;34053;51.088;6.572;2022-12-01T08:37:29;102087.06;;;6.19;82.54
48244;BME280;34053;51.088;6.572;2022-12-01T08:40:00;102097.50;;;6.19;82.59
48244;BME280;34053;51.088;6.572;2022-12-01T08:42:30;102098.22;;;6.09;83.82
48244;BME280;34053;51.088;6.572;2022-12-01T08:45:01;102105.31;;;6.19;83.53
48244;BME280;34053;51.088;6.572;2022-12-01T08:47:31;102098.47;;;6.27;83.48
48244;BME280;34053;51.088;6.572;2022-12-01T08:50:02;102093.25;;;6.29;82.92
48244;BME280;34053;51.088;6.572;2022-12-01T08:52:34;102097.41;;;6.11;82.76
48244;BME280;34053;51.088;6.572;2022-12-01T08:55:05;102090.75;;;6.35;82.72
48244;BME280;34053;51.088;6.572;2022-12-01T08:57:36;102095.78;;;6.23;83.28
48244;BME280;34053;51.088;6.572;2022-12-01T09:00:07;102095.06;;;6.32;82.40
48244;BME280;34053;51.088;6.572;2022-12-01T09:02:37;102101.72;;;6.12;83.51
48244;BME280;34053;51.088;6.572;2022-12-01T09:05:08;102101.66;;;6.06;83.66
48244;BME280;34053;51.088;6.572;2022-12-01T09:07:39;102101.78;;;6.14;84.02
48244;BME280;34053;51.088;6.572;2022-12-01T09:10:10;102100.09;;;6.19;83.36
48244;BME280;34053;51.088;6.572;2022-12-01T09:12:40;102096.81;;;6.36;82.49
48244;BME280;34053;51.088;6.572;2022-12-01T09:15:11;102104.72;;;6.40;82.68
48244;BME280;34053;51.088;6.572;2022-12-01T09:17:44;102109.84;;;6.34;82.91
48244;BME280;34053;51.088;6.572;2022-12-01T09:20:14;102108.88;;;6.27;82.84
48244;BME280;34053;51.088;6.572;2022-12-01T09:22:45;102103.63;;;6.24;83.05
48244;BME280;34053;51.088;6.572;2022-12-01T09:25:15;102107.13;;;6.23;83.32
48244;BME280;34053;51.088;6.572;2022-12-01T09:27:46;102101.03;;;6.24;83.68
48244;BME280;34053;51.088;6.572;2022-12-01T09:30:16;102099.38;;;6.29;82.99
48244;BME280;34053;51.088;6.572;2022-12-01T09:32:47;102109.91;;;6.39;83.20
48244;BME280;34053;51.088;6.572;2022-12-01T09:35:18;102106.28;;;6.29;83.34
48244;BME280;34053;51.088;6.572;2022-12-01T09:37:48;102111.66;;;6.40;82.98
48244;BME280;34053;51.088;6.572;2022-12-01T09:40:19;102107.97;;;6.24;83.29
48244;BME280;34053;51.088;6.572;2022-12-01T09:42:49;102113.38;;;6.39;83.23
48244;BME280;34053;51.088;6.572;2022-12-01T09:45:33;102101.19;;;6.35;83.62
48244;BME280;34053;51.088;6.572;2022-12-01T09:48:06;102100.22;;;6.28;83.30
48244;BME280;34053;51.088;6.572;2022-12-01T09:50:43;102103.72;;;6.30;83.40
48244;BME280;34053;51.088;6.572;2022-12-01T09:53:21;102105.44;;;6.30;84.04
48244;BME280;34053;51.088;6.572;2022-12-01T09:55:54;102107.31;;;6.39;83.18
48244;BME280;34053;51.088;6.572;2022-12-01T09:58:27;102109.06;;;6.40;83.13
48244;BME280;34053;51.088;6.572;2022-12-01T10:01:00;102102.94;;;6.38;82.76
48244;BME280;34053;51.088;6.572;2022-12-01T10:03:39;102102.03;;;6.36;83.15
48244;BME280;34053;51.088;6.572;2022-12-01T10:06:39;102106.34;;;6.32;83.03
48244;BME280;34053;51.088;6.572;2022-12-01T10:12:18;102095.84;;;6.26;83.21
48244;BME280;34053;51.088;6.572;2022-12-01T10:14:49;102093.13;;;6.18;83.47
48244;BME280;34053;51.088;6.572;2022-12-01T10:17:30;102096.00;;;6.38;82.98
48244;BME280;34053;51.088;6.572;2022-12-01T10:25:58;102089.94;;;6.41;82.57
48244;BME280;34053;51.088;6.572;2022-12-01T10:34:39;102092.66;;;6.50;82.78
48244;BME280;34053;51.088;6.572;2022-12-01T10:37:13;102091.75;;;6.46;82.75
48244;BME280;34053;51.088;6.572;2022-12-01T10:39:48;102091.69;;;6.42;82.78
48244;BME280;34053;51.088;6.572;2022-12-01T10:42:43;102088.28;;;6.49;83.12
48244;BME280;34053;51.088;6.572;2022-12-01T10:48:17;102085.66;;;6.44;83.21
48244;BME280;34053;51.088;6.572;2022-12-01T10:50:51;102079.59;;;6.47;83.11
48244;BME280;34053;51.088;6.572;2022-12-01T10:56:01;102078.63;;;6.40;82.51
48244;BME280;34053;51.088;6.572;2022-12-01T10:58:54;102084.69;;;6.38;82.37
48244;BME280;34053;51.088;6.572;2022-12-01T11:01:28;102074.19;;;6.32;82.71
48244;BME280;34053;51.088;6.572;2022-12-01T11:04:07;102076.03;;;6.40;82.83
48244;BME280;34053;51.088;6.572;2022-12-01T11:06:49;102076.16;;;6.51;82.51
48244;BME280;34053;51.088;6.572;2022-12-01T11:09:24;102073.38;;;6.37;82.82
48244;BME280;34053;51.088;6.572;2022-12-01T11:11:58;102070.75;;;6.34;81.94
48244;BME280;34053;51.088;6.572;2022-12-01T11:19:54;102072.44;;;6.30;82.37
48244;BME280;34053;51.088;6.572;2022-12-01T11:22:31;102067.41;;;6.44;82.22
48244;BME280;34053;51.088;6.572;2022-12-01T11:25:04;102062.94;;;6.37;82.32
48244;BME280;34053;51.088;6.572;2022-12-01T11:27:43;102065.66;;;6.45;82.12
48244;BME280;34053;51.088;6.572;2022-12-01T11:30:23;102070.88;;;6.43;82.30
48244;BME280;34053;51.088;6.572;2022-12-01T11:35:30;102069.16;;;6.47;82.27
48244;BME280;34053;51.088;6.572;2022-12-01T11:38:03;102063.94;;;6.47;82.49
48244;BME280;34053;51.088;6.572;2022-12-01T11:40:48;102068.31;;;6.50;82.56
48244;BME280;34053;51.088;6.572;2022-12-01T11:45:57;102059.66;;;6.52;82.20
48244;BME280;34053;51.088;6.572;2022-12-01T11:48:31;102054.50;;;6.57;81.46
48244;BME280;34053;51.088;6.572;2022-12-01T11:51:26;102064.06;;;6.56;82.13
48244;BME280;34053;51.088;6.572;2022-12-01T11:54:17;102063.94;;;6.47;82.74
48244;BME280;34053;51.088;6.572;2022-12-01T11:56:49;102053.63;;;6.58;82.20
48244;BME280;34053;51.088;6.572;2022-12-01T11:59:22;102057.94;;;6.53;82.15
48244;BME280;34053;51.088;6.572;2022-12-01T12:02:16;102050.06;;;6.51;82.56
48244;BME280;34053;51.088;6.572;2022-12-01T12:10:21;102058.91;;;6.63;81.76
48244;BME280;34053;51.088;6.572;2022-12-01T12:15:51;102044.00;;;6.54;82.26
48244;BME280;34053;51.088;6.572;2022-12-01T12:24:56;102044.06;;;6.55;81.49
48244;BME280;34053;51.088;6.572;2022-12-01T12:30:41;102044.06;;;6.57;81.86
48244;BME280;34053;51.088;6.572;2022-12-01T12:33:31;102043.88;;;6.41;82.15
48244;BME280;34053;51.088;6.572;2022-12-01T12:42:06;102034.31;;;6.42;81.85
48244;BME280;34053;51.088;6.572;2022-12-01T12:44:49;102035.94;;;6.30;80.87
48244;BME280;34053;51.088;6.572;2022-12-01T12:52:34;102035.13;;;6.35;81.48
48244;BME280;34053;51.088;6.572;2022-12-01T12:58:07;102030.00;;;6.44;80.92
48244;BME280;34053;51.088;6.572;2022-12-01T13:00:45;102024.94;;;6.58;80.24
48244;BME280;34053;51.088;6.572;2022-12-01T13:03:37;102029.97;;;6.41;79.33
48244;BME280;34053;51.088;6.572;2022-12-01T13:09:19;102018.69;;;6.42;79.91
48244;BME280;34053;51.088;6.572;2022-12-01T13:12:08;102009.94;;;6.37;78.78
48244;BME280;34053;51.088;6.572;2022-12-01T13:14:42;102015.16;;;6.38;78.79
48244;BME280;34053;51.088;6.572;2022-12-01T13:17:32;102004.66;;;6.30;78.88
48244;BME280;34053;51.088;6.572;2022-12-01T13:20:06;102005.69;;;6.43;78.76
48244;BME280;34053;51.088;6.572;2022-12-01T13:22:36;102009.25;;;6.53;78.02
48244;BME280;34053;51.088;6.572;2022-12-01T13:25:11;102001.47;;;6.59;78.40
48244;BME280;34053;51.088;6.572;2022-12-01T13:27:44;102001.53;;;6.63;78.54
48244;BME280;34053;51.088;6.572;2022-12-01T13:30:18;102006.66;;;6.53;77.64
48244;BME280;34053;51.088;6.572;2022-12-01T13:32:48;102004.84;;;6.48;78.64
48244;BME280;34053;51.088;6.572;2022-12-01T13:35:35;101999.47;;;6.32;78.66
48244;BME280;34053;51.088;6.572;2022-12-01T13:38:30;101984.94;;;6.56;78.20
48244;BME280;34053;51.088;6.572;2022-12-01T13:43:55;101992.75;;;6.57;78.83
48244;BME280;34053;51.088;6.572;2022-12-01T13:49:44;101996.22;;;6.53;78.68
48244;BME280;34053;51.088;6.572;2022-12-01T14:00:28;101995.22;;;6.42;78.89
48244;BME280;34053;51.088;6.572;2022-12-01T14:08:19;101994.25;;;6.30;78.71
48244;BME280;34053;51.088;6.572;2022-12-01T14:11:35;101995.16;;;6.37;78.89
48244;BME280;34053;51.088;6.572;2022-12-01T14:14:18;101996.06;;;6.39;78.58
48244;BME280;34053;51.088;6.572;2022-12-01T14:16:56;101994.41;;;6.46;79.00
48244;BME280;34053;51.088;6.572;2022-12-01T14:19:49;101993.47;;;6.41;79.34
48244;BME280;34053;51.088;6.572;2022-12-01T14:28:02;101994.41;;;6.44;78.80
48244;BME280;34053;51.088;6.572;2022-12-01T14:41:32;101992.50;;;6.33;78.18
48244;BME280;34053;51.088;6.572;2022-12-01T14:46:59;101996.00;;;6.35;78.60
48244;BME280;34053;51.088;6.572;2022-12-01T14:49:38;101993.41;;;6.33;77.18
48244;BME280;34053;51.088;6.572;2022-12-01T14:55:21;101986.38;;;6.29;77.66
48244;BME280;34053;51.088;6.572;2022-12-01T14:58:01;101986.44;;;6.34;77.93
48244;BME280;34053;51.088;6.572;2022-12-01T15:00:36;101982.19;;;6.42;78.30
48244;BME280;34053;51.088;6.572;2022-12-01T15:03:09;101983.94;;;6.43;77.46
48244;BME280;34053;51.088;6.572;2022-12-01T15:05:42;101981.31;;;6.41;78.40
48244;BME280;34053;51.088;6.572;2022-12-01T15:08:25;101985.63;;;6.39;78.05
48244;BME280;34053;51.088;6.572;2022-12-01T15:10:57;101979.63;;;6.45;78.41
48244;BME280;34053;51.088;6.572;2022-12-01T15:13:47;101978.72;;;6.40;77.33
48244;BME280;34053;51.088;6.572;2022-12-01T15:16:20;101987.44;;;6.45;77.82
48244;BME280;34053;51.088;6.572;2022-12-01T15:18:52;101992.66;;;6.43;78.39
48244;BME280;34053;51.088;6.572;2022-12-01T15:21:25;101986.56;;;6.44;78.36
48244;BME280;34053;51.088;6.572;2022-12-01T15:24:26;101986.53;;;6.40;77.56
48244;BME280;34053;51.088;6.572;2022-12-01T15:26:57;101990.00;;;6.40;78.57
48244;BME280;34053;51.088;6.572;2022-12-01T15:29:39;101992.59;;;6.39;78.53
48244;BME280;34053;51.088;6.572;2022-12-01T15:32:15;101990.94;;;6.47;78.39
48244;BME280;34053;51.088;6.572;2022-12-01T15:34:51;101993.59;;;6.53;77.80
48244;BME280;34053;51.088;6.572;2022-12-01T15:37:24;101990.00;;;6.42;77.64
48244;BME280;34053;51.088;6.572;2022-12-01T15:40:05;101989.13;;;6.40;77.85
48244;BME280;34053;51.088;6.572;2022-12-01T15:42:38;101994.25;;;6.34;78.30
48244;BME280;34053;51.088;6.572;2022-12-01T15:47:49;102002.94;;;6.33;77.94
48244;BME280;34053;51.088;6.572;2022-12-01T15:53:04;102002.03;;;6.29;78.03
48244;BME280;34053;51.088;6.572;2022-12-01T15:55:38;102009.84;;;6.27;77.73
48244;BME280;34053;51.088;6.572;2022-12-01T15:58:15;102009.94;;;6.37;77.75
48244;BME280;34053;51.088;6.572;2022-12-01T16:01:10;102013.28;;;6.23;77.51
48244;BME280;34053;51.088;6.572;2022-12-01T16:06:21;102016.91;;;6.38;76.80
48244;BME280;34053;51.088;6.572;2022-12-01T16:08:56;102024.56;;;6.24;77.17
48244;BME280;34053;51.088;6.572;2022-12-01T16:11:28;102026.16;;;6.12;77.57
48244;BME280;34053;51.088;6.572;2022-12-01T16:14:04;102033.13;;;6.13;77.42
48244;BME280;34053;51.088;6.572;2022-12-01T16:16:48;102026.97;;;6.07;77.40
48244;BME280;34053;51.088;6.572;2022-12-01T16:19:31;102027.78;;;6.04;77.86
48244;BME280;34053;51.088;6.572;2022-12-01T16:22:13;102015.50;;;5.97;77.00
48244;BME280;34053;51.088;6.572;2022-12-01T16:24:51;102014.81;;;6.09;77.82
48244;BME280;34053;51.088;6.572;2022-12-01T16:27:25;102015.44;;;5.92;77.21
48244;BME280;34053;51.088;6.572;2022-12-01T16:32:36;102006.94;;;6.01;77.93